Time;durP1;ratioP1;P1;durP2;ratioP2;P2;SDS_P1;SDS_P2;PMS_P1;PMS_P2;Temp;Humidity;BMP_temperature;BMP_pressure;BME280_temperature;BME280_humidity;BME280_pressure;Samples;Min_cycle;Max_cycle;Signal;HPM_P1;HPM_P2
2020/12/20 00:00:42;;;;;;;13.97;12.60;;;6.20;96.70;;;;;;5020133;28;20166;-89
2020/12/20 00:03:08;;;;;;;15.13;13.73;;;6.30;96.50;;;;;;5017390;28;20285;-88
2020/12/20 00:05:34;;;;;;;15.90;14.43;;;6.30;95.30;;;;;;5022084;28;20190;-88
2020/12/20 00:07:59;;;;;;;16.27;14.87;;;6.20;94.70;;;;;;5021077;28;20198;-88
2020/12/20 00:10:25;;;;;;;16.27;14.77;;;6.20;95.20;;;;;;5021410;28;20198;-87
2020/12/20 00:12:51;;;;;;;16.80;15.20;;;6.20;95.50;;;;;;5021978;28;20209;-88
2020/12/20 00:15:18;;;;;;;18.00;15.93;;;6.20;97.30;;;;;;5021969;28;20649;-88
2020/12/20 00:17:47;;;;;;;17.07;15.47;;;6.20;96.70;;;;;;5006095;28;20186;-87
2020/12/20 00:20:13;;;;;;;16.50;15.00;;;6.20;96.70;;;;;;5007079;28;20197;-87
2020/12/20 00:22:39;;;;;;;16.40;14.90;;;6.10;96.50;;;;;;5022839;28;20214;-88
2020/12/20 00:25:05;;;;;;;17.03;15.33;;;6.00;97.40;;;;;;5006650;28;20189;-88
2020/12/20 00:27:31;;;;;;;14.83;13.47;;;5.90;97.50;;;;;;5006509;28;20174;-88
2020/12/20 00:29:56;;;;;;;16.77;15.00;;;5.90;99.10;;;;;;5005215;28;20186;-87
2020/12/20 00:32:22;;;;;;;15.37;14.07;;;5.90;99.00;;;;;;5007237;28;20229;-87
2020/12/20 00:34:48;;;;;;;16.43;15.03;;;6.00;99.30;;;;;;5022753;28;20210;-87
2020/12/20 00:37:14;;;;;;;17.17;15.57;;;6.20;98.50;;;;;;5007360;28;20195;-88
2020/12/20 00:39:40;;;;;;;15.70;14.30;;;6.20;97.20;;;;;;5006422;28;20217;-87
2020/12/20 00:42:07;;;;;;;16.30;14.53;;;6.20;97.70;;;;;;5005547;28;20194;-88
2020/12/20 00:44:33;;;;;;;13.90;12.70;;;6.20;97.90;;;;;;5004985;28;20226;-87
2020/12/20 00:47:01;;;;;;;14.23;12.97;;;6.20;98.60;;;;;;5006085;28;20225;-87
2020/12/20 00:49:28;;;;;;;15.13;13.53;;;6.20;98.40;;;;;;5005829;28;20530;-86
2020/12/20 00:51:57;;;;;;;16.00;14.60;;;6.20;98.20;;;;;;5005291;28;20226;-89
2020/12/20 00:54:27;;;;;;;15.37;13.87;;;6.30;96.90;;;;;;5021358;28;20218;-87
2020/12/20 00:56:52;;;;;;;14.40;13.00;;;6.30;96.70;;;;;;5005385;28;20189;-87
2020/12/20 00:59:19;;;;;;;14.43;13.03;;;6.20;97.20;;;;;;5021893;28;20626;-87
2020/12/20 01:01:44;;;;;;;15.67;14.20;;;6.20;98.00;;;;;;5004643;28;20642;-89
2020/12/20 01:04:10;;;;;;;14.47;13.17;;;6.30;98.20;;;;;;5006345;28;20197;-89
2020/12/20 01:06:38;;;;;;;15.40;14.00;;;6.20;97.80;;;;;;5021008;28;20191;-88
2020/12/20 01:09:05;;;;;;;15.93;14.60;;;6.30;98.00;;;;;;5005711;28;20182;-88
2020/12/20 01:11:31;;;;;;;16.03;14.10;;;6.30;97.10;;;;;;5005988;28;20186;-87
2020/12/20 01:13:57;;;;;;;15.20;13.70;;;6.20;96.90;;;;;;5005845;28;20297;-88
2020/12/20 01:16:26;;;;;;;15.07;13.67;;;6.20;97.40;;;;;;5021196;28;20186;-88
2020/12/20 01:18:57;;;;;;;13.80;12.60;;;6.10;97.90;;;;;;5005089;28;20178;-88
2020/12/20 01:21:22;;;;;;;16.30;14.87;;;6.10;98.70;;;;;;5005777;28;20222;-88
2020/12/20 01:23:49;;;;;;;15.53;14.07;;;6.00;98.90;;;;;;5005840;28;20202;-87
2020/12/20 01:26:15;;;;;;;14.37;13.13;;;6.10;99.60;;;;;;5005355;28;20209;-88
2020/12/20 01:28:43;;;;;;;15.00;13.60;;;6.20;99.60;;;;;;5004049;28;20178;-88
2020/12/20 01:31:11;;;;;;;14.67;13.23;;;6.30;98.00;;;;;;5005709;28;20178;-88
2020/12/20 01:33:41;;;;;;;14.43;13.23;;;6.30;98.00;;;;;;5005399;28;20242;-88
2020/12/20 01:36:08;;;;;;;14.57;13.10;;;6.10;98.60;;;;;;5005286;28;20175;-88
2020/12/20 01:38:35;;;;;;;14.03;12.90;;;6.20;98.80;;;;;;5004010;28;20182;-88
2020/12/20 01:41:01;;;;;;;15.30;13.90;;;6.30;98.40;;;;;;5005968;28;20178;-88
2020/12/20 01:43:39;;;;;;;13.43;12.13;;;6.20;98.40;;;;;;5005331;28;20269;-88
2020/12/20 01:46:08;;;;;;;14.77;13.37;;;6.20;98.60;;;;;;5005523;28;20186;-88
2020/12/20 01:48:37;;;;;;;13.47;12.27;;;6.20;98.20;;;;;;5005346;28;20178;-89
2020/12/20 01:51:02;;;;;;;13.80;12.67;;;6.20;99.90;;;;;;5005269;28;20197;-88
2020/12/20 01:53:29;;;;;;;15.60;14.10;;;6.30;98.40;;;;;;5004583;28;20206;-88
2020/12/20 01:56:00;;;;;;;14.90;13.50;;;6.30;97.30;;;;;;5003896;28;20214;-89
2020/12/20 01:58:27;;;;;;;12.77;11.73;;;6.20;98.20;;;;;;5006332;28;20333;-88
2020/12/20 02:00:53;;;;;;;13.90;12.50;;;6.10;99.30;;;;;;5020025;28;20202;-88
2020/12/20 02:03:20;;;;;;;14.60;13.10;;;6.10;99.40;;;;;;5004969;28;20217;-87
2020/12/20 02:05:47;;;;;;;16.57;15.07;;;6.20;99.00;;;;;;5004898;28;20556;-88
2020/12/20 02:08:13;;;;;;;14.93;13.53;;;6.40;98.70;;;;;;5019815;28;20225;-88
2020/12/20 02:10:39;;;;;;;15.60;14.07;;;6.30;98.50;;;;;;5020223;28;20661;-88
2020/12/20 02:13:05;;;;;;;15.17;13.97;;;6.30;98.10;;;;;;5019953;28;20198;-88
2020/12/20 02:15:30;;;;;;;14.53;13.33;;;6.40;98.30;;;;;;5004834;28;20297;-87
2020/12/20 02:17:56;;;;;;;16.47;14.97;;;6.40;98.70;;;;;;5004884;28;20208;-88
2020/12/20 02:20:22;;;;;;;16.57;14.60;;;6.40;98.00;;;;;;5003851;28;20232;-88
2020/12/20 02:22:47;;;;;;;14.50;13.20;;;6.30;98.40;;;;;;4999277;28;20265;-88
2020/12/20 02:25:13;;;;;;;15.33;13.83;;;6.20;99.60;;;;;;4999976;28;20209;-88
2020/12/20 02:27:39;;;;;;;15.10;13.60;;;6.20;99.90;;;;;;4999713;28;20277;-88
2020/12/20 02:30:05;;;;;;;15.90;14.50;;;6.30;99.80;;;;;;5015185;28;20179;-90
2020/12/20 02:32:30;;;;;;;14.93;13.63;;;6.40;99.60;;;;;;5010647;28;20285;-87
2020/12/20 02:34:56;;;;;;;15.17;13.77;;;6.30;99.60;;;;;;4998911;28;20216;-87
2020/12/20 02:37:22;;;;;;;16.33;14.73;;;6.40;99.40;;;;;;5012319;28;20187;-89
2020/12/20 02:39:47;;;;;;;15.80;14.43;;;6.40;99.70;;;;;;5017838;28;20242;-89
2020/12/20 02:42:13;;;;;;;15.90;14.50;;;6.40;99.60;;;;;;5017840;28;20201;-90
2020/12/20 02:44:39;;;;;;;15.23;13.83;;;6.40;99.20;;;;;;5003723;28;20255;-88
2020/12/20 02:47:06;;;;;;;16.27;14.63;;;6.50;99.30;;;;;;5001111;28;20182;-88
2020/12/20 02:49:31;;;;;;;15.77;14.30;;;6.50;99.50;;;;;;5000329;28;20582;-88
2020/12/20 02:51:57;;;;;;;15.13;13.73;;;6.50;99.60;;;;;;5000603;28;20210;-88
2020/12/20 02:54:22;;;;;;;14.77;13.47;;;6.50;98.40;;;;;;4999124;28;20584;-88
2020/12/20 02:56:48;;;;;;;15.47;14.03;;;6.40;99.00;;;;;;4982671;28;20192;-87
2020/12/20 02:59:14;;;;;;;15.23;13.87;;;6.30;99.30;;;;;;4999749;28;20214;-89
2020/12/20 03:01:39;;;;;;;14.40;13.13;;;6.40;98.80;;;;;;5001101;28;20210;-88
2020/12/20 03:04:05;;;;;;;14.33;13.23;;;6.40;98.70;;;;;;4999381;28;20221;-88
2020/12/20 03:06:31;;;;;;;14.93;13.53;;;6.40;99.00;;;;;;5003159;28;20183;-88
2020/12/20 03:08:57;;;;;;;17.60;16.00;;;6.50;99.40;;;;;;5004536;28;20186;-88
2020/12/20 03:11:22;;;;;;;14.73;13.43;;;6.30;99.80;;;;;;5018926;28;20187;-88
2020/12/20 03:13:48;;;;;;;16.33;14.83;;;6.10;99.90;;;;;;5003832;28;20230;-88
2020/12/20 03:16:14;;;;;;;14.60;13.30;;;6.10;99.90;;;;;;5019883;28;20883;-88
2020/12/20 03:18:40;;;;;;;15.73;14.33;;;6.10;99.90;;;;;;5003999;28;20186;-88
2020/12/20 03:21:06;;;;;;;18.40;16.80;;;6.20;99.90;;;;;;5008136;28;20185;-88
2020/12/20 03:23:31;;;;;;;18.10;16.40;;;6.10;99.90;;;;;;5023158;28;20354;-88
2020/12/20 03:25:57;;;;;;;17.80;16.10;;;6.10;99.90;;;;;;5022954;28;20184;-88
2020/12/20 03:28:23;;;;;;;15.87;14.37;;;6.00;99.90;;;;;;5022958;28;20233;-87
2020/12/20 03:30:48;;;;;;;16.13;14.70;;;6.10;99.90;;;;;;5025206;28;20205;-88
2020/12/20 03:33:14;;;;;;;16.10;14.67;;;6.20;99.90;;;;;;5024169;28;20276;-88
2020/12/20 03:35:40;;;;;;;16.30;14.87;;;6.20;99.90;;;;;;5025396;28;20530;-88
2020/12/20 03:38:05;;;;;;;17.47;15.90;;;6.40;99.90;;;;;;5041176;28;20190;-87
2020/12/20 03:40:31;;;;;;;17.93;16.33;;;6.30;99.90;;;;;;5041394;28;20668;-88
2020/12/20 03:42:56;;;;;;;17.27;15.67;;;6.40;99.90;;;;;;5040425;28;20234;-88
2020/12/20 03:45:22;;;;;;;17.67;16.07;;;6.40;99.90;;;;;;5024147;28;20196;-88
2020/12/20 03:47:48;;;;;;;18.20;16.43;;;6.40;99.90;;;;;;5023711;28;20217;-88
2020/12/20 03:50:14;;;;;;;17.90;16.20;;;6.40;99.90;;;;;;5024498;28;20240;-88
2020/12/20 03:52:40;;;;;;;18.70;16.97;;;6.30;99.90;;;;;;5024974;28;20680;-88
2020/12/20 03:55:06;;;;;;;18.37;16.77;;;6.30;99.90;;;;;;5039834;28;20239;-88
2020/12/20 03:57:32;;;;;;;18.23;16.43;;;6.40;99.90;;;;;;5025968;28;20174;-88
2020/12/20 03:59:57;;;;;;;17.03;15.23;;;6.50;99.90;;;;;;5023677;28;20521;-88
2020/12/20 04:02:23;;;;;;;16.53;14.93;;;6.60;99.90;;;;;;5040058;28;20208;-89
2020/12/20 04:04:49;;;;;;;16.90;15.40;;;6.60;99.90;;;;;;5024029;28;20178;-88
2020/12/20 04:07:16;;;;;;;16.30;14.80;;;6.60;99.90;;;;;;5023903;28;20209;-88
2020/12/20 04:09:42;;;;;;;16.00;14.60;;;6.60;99.90;;;;;;5022668;28;20275;-88
2020/12/20 04:12:08;;;;;;;15.47;14.17;;;6.50;99.90;;;;;;5023890;28;20216;-88
2020/12/20 04:14:34;;;;;;;15.77;14.33;;;6.60;99.90;;;;;;5023497;28;20202;-89
2020/12/20 04:17:00;;;;;;;16.27;14.77;;;6.50;99.90;;;;;;5038659;28;20174;-88
2020/12/20 04:19:26;;;;;;;15.57;14.27;;;6.60;99.90;;;;;;5023477;28;20204;-87
2020/12/20 04:21:51;;;;;;;16.13;14.73;;;6.60;99.90;;;;;;5023898;28;20719;-88
2020/12/20 04:24:17;;;;;;;15.40;13.90;;;6.60;99.90;;;;;;5021788;28;20208;-88
2020/12/20 04:26:43;;;;;;;18.13;16.53;;;6.60;99.90;;;;;;5022088;28;20182;-89
2020/12/20 04:29:10;;;;;;;16.70;15.10;;;6.60;99.70;;;;;;5021493;28;20602;-89
2020/12/20 04:31:36;;;;;;;15.37;13.93;;;6.70;99.40;;;;;;5021328;28;20220;-88
2020/12/20 04:34:02;;;;;;;16.10;14.63;;;6.70;99.10;;;;;;5023654;28;20209;-88
2020/12/20 04:36:27;;;;;;;15.43;13.93;;;6.60;98.60;;;;;;5037887;28;20178;-88
2020/12/20 04:38:55;;;;;;;16.60;15.00;;;6.60;99.20;;;;;;5038498;28;20186;-89
2020/12/20 04:41:22;;;;;;;16.03;14.63;;;6.50;99.40;;;;;;5022134;28;20196;-87
2020/12/20 04:43:48;;;;;;;15.70;14.30;;;6.60;99.90;;;;;;5023250;28;20238;-89
2020/12/20 04:46:17;;;;;;;17.00;15.40;;;6.70;99.20;;;;;;5039673;28;20276;-88
2020/12/20 04:48:44;;;;;;;16.40;14.80;;;6.60;98.80;;;;;;5024440;28;20228;-88
2020/12/20 04:51:10;;;;;;;15.97;14.43;;;6.60;98.60;;;;;;5023182;28;20712;-89
2020/12/20 04:53:36;;;;;;;16.17;14.67;;;6.50;98.60;;;;;;5023272;28;20204;-88
2020/12/20 04:56:07;;;;;;;15.13;13.83;;;6.50;99.00;;;;;;5021196;28;20581;-88
2020/12/20 04:58:34;;;;;;;16.17;14.67;;;6.50;99.30;;;;;;5039089;28;20173;-88
2020/12/20 05:01:00;;;;;;;16.13;14.53;;;6.40;99.60;;;;;;5022765;28;20181;-88
2020/12/20 05:03:26;;;;;;;15.77;14.20;;;6.40;99.90;;;;;;5023300;28;20693;-89
2020/12/20 05:05:53;;;;;;;17.10;15.50;;;6.20;99.90;;;;;;5023290;28;20208;-89
2020/12/20 05:08:21;;;;;;;16.40;14.87;;;6.10;99.90;;;;;;5034981;28;20256;-90
2020/12/20 05:10:46;;;;;;;14.20;12.97;;;6.00;99.90;;;;;;5051215;28;20178;-88
2020/12/20 05:13:12;;;;;;;16.17;14.53;;;6.10;99.90;;;;;;5020669;28;20208;-88
2020/12/20 05:15:38;;;;;;;14.67;13.37;;;6.20;99.90;;;;;;5025812;28;20205;-90
2020/12/20 05:18:09;;;;;;;15.47;14.07;;;6.20;99.90;;;;;;5038071;28;20157;-90
2020/12/20 05:20:40;;;;;;;15.63;14.23;;;6.40;99.90;;;;;;5032364;28;20688;-89
2020/12/20 05:23:07;;;;;;;14.67;13.37;;;6.50;99.90;;;;;;5019497;28;20256;-88
2020/12/20 05:25:33;;;;;;;15.20;13.80;;;6.50;99.70;;;;;;5034331;28;20190;-89
2020/12/20 05:28:13;;;;;;;14.43;13.10;;;6.60;99.70;;;;;;5019378;28;20181;-89
2020/12/20 05:30:41;;;;;;;15.63;14.10;;;6.60;98.70;;;;;;5017586;28;20174;-88
2020/12/20 05:33:07;;;;;;;14.27;12.87;;;6.60;98.20;;;;;;5033772;28;20645;-88
2020/12/20 05:35:34;;;;;;;13.90;12.60;;;6.50;98.90;;;;;;5020046;28;20247;-89
2020/12/20 05:38:01;;;;;;;14.60;13.10;;;6.50;99.00;;;;;;5020344;28;20181;-88
2020/12/20 05:40:35;;;;;;;14.07;12.77;;;6.60;99.00;;;;;;5020240;28;20522;-88
2020/12/20 05:43:07;;;;;;;14.93;13.63;;;6.50;98.80;;;;;;5034805;28;20197;-88
2020/12/20 05:45:36;;;;;;;15.67;14.37;;;6.60;98.60;;;;;;5019366;28;20182;-88
2020/12/20 05:48:16;;;;;;;16.03;14.47;;;6.60;97.90;;;;;;5035248;28;20221;-88
2020/12/20 05:51:02;;;;;;;15.57;13.93;;;6.60;98.20;;;;;;5034894;28;20189;-88
2020/12/20 05:53:33;;;;;;;15.80;14.40;;;6.50;98.90;;;;;;5018792;28;20264;-88
2020/12/20 05:56:00;;;;;;;15.10;13.77;;;6.30;99.80;;;;;;5020119;28;20209;-88
2020/12/20 05:58:31;;;;;;;15.73;14.33;;;6.20;99.90;;;;;;5020801;28;20206;-89
2020/12/20 06:00:57;;;;;;;14.07;12.87;;;6.20;99.90;;;;;;5007026;28;20280;-89
2020/12/20 06:03:23;;;;;;;14.17;12.87;;;6.30;99.90;;;;;;4998312;28;20657;-89
2020/12/20 06:05:49;;;;;;;15.93;14.50;;;6.40;99.90;;;;;;4999869;28;20213;-89
2020/12/20 06:08:18;;;;;;;14.10;12.90;;;6.50;99.70;;;;;;4999429;28;20227;-90
2020/12/20 06:10:46;;;;;;;14.47;13.20;;;6.40;99.80;;;;;;4999490;28;20183;-89
2020/12/20 06:13:14;;;;;;;16.40;14.93;;;6.50;99.80;;;;;;5000699;28;20230;-89
2020/12/20 06:15:44;;;;;;;16.60;15.00;;;6.60;99.00;;;;;;5000426;28;20285;-88
2020/12/20 06:18:11;;;;;;;14.73;13.43;;;6.60;99.10;;;;;;5001256;28;20182;-89
2020/12/20 06:20:57;;;;;;;14.30;13.00;;;6.50;99.10;;;;;;4999528;28;20255;-89
2020/12/20 06:23:29;;;;;;;14.77;13.47;;;6.60;99.10;;;;;;5000390;28;20253;-89
2020/12/20 06:25:56;;;;;;;14.57;13.27;;;6.60;99.50;;;;;;5001313;28;20170;-89
2020/12/20 06:28:24;;;;;;;14.47;13.17;;;6.60;98.40;;;;;;4999320;28;20210;-89
2020/12/20 06:30:51;;;;;;;13.83;12.73;;;6.60;98.90;;;;;;5000968;28;20186;-89
2020/12/20 06:33:34;;;;;;;14.73;13.43;;;6.60;98.90;;;;;;5003332;28;20206;-89
2020/12/20 06:36:20;;;;;;;15.13;13.83;;;6.60;98.60;;;;;;4999227;28;20252;-89
2020/12/20 06:38:55;;;;;;;13.67;12.47;;;6.70;97.90;;;;;;5000619;28;20170;-89
2020/12/20 06:41:40;;;;;;;16.70;15.30;;;6.70;98.40;;;;;;5001702;28;20166;-89
2020/12/20 06:44:15;;;;;;;16.97;15.43;;;6.50;99.50;;;;;;5004353;28;20281;-89
2020/12/20 06:46:42;;;;;;;15.90;14.60;;;6.50;99.50;;;;;;5007260;28;20182;-89
2020/12/20 06:49:33;;;;;;;16.50;14.83;;;6.50;99.90;;;;;;5004026;28;20175;-89
2020/12/20 06:52:17;;;;;;;17.23;15.63;;;6.60;99.70;;;;;;5007140;28;20226;-89
2020/12/20 06:55:26;;;;;;;18.00;16.30;;;6.60;99.70;;;;;;5008059;28;20202;-89
2020/12/20 06:58:06;;;;;;;19.57;17.73;;;6.50;99.90;;;;;;5003478;28;20213;-89
2020/12/20 07:00:55;;;;;;;17.47;15.80;;;6.20;99.90;;;;;;5009276;28;20227;-89
2020/12/20 07:03:32;;;;;;;17.93;16.43;;;6.30;99.90;;;;;;5024960;28;20604;-89
2020/12/20 07:06:19;;;;;;;16.80;15.37;;;6.40;99.90;;;;;;5026694;28;20192;-89
2020/12/20 07:09:05;;;;;;;16.80;15.30;;;6.40;99.90;;;;;;5026507;28;20201;-89
2020/12/20 07:11:32;;;;;;;16.10;14.70;;;6.40;99.90;;;;;;5024214;28;20170;-90
2020/12/20 07:13:58;;;;;;;16.70;15.20;;;6.40;99.90;;;;;;5025773;28;20189;-90
2020/12/20 07:16:39;;;;;;;18.83;17.03;;;6.40;99.90;;;;;;5018442;28;20173;-89
2020/12/20 07:19:09;;;;;;;19.20;17.40;;;6.40;99.90;;;;;;5024394;28;20181;-89
2020/12/20 07:21:41;;;;;;;21.80;19.70;;;6.40;99.90;;;;;;5027133;28;20289;-89
2020/12/20 07:24:24;;;;;;;20.53;18.70;;;6.30;99.90;;;;;;5016627;28;20209;-90
2020/12/20 07:26:55;;;;;;;20.07;18.20;;;6.40;99.90;;;;;;5025268;28;20177;-89
2020/12/20 07:29:21;;;;;;;18.03;16.33;;;6.40;99.90;;;;;;5025616;28;20177;-89
2020/12/20 07:31:52;;;;;;;17.07;15.47;;;6.50;99.90;;;;;;5025982;28;20278;-88
2020/12/20 07:34:18;;;;;;;18.67;16.87;;;6.50;99.90;;;;;;5039259;28;20213;-89
2020/12/20 07:36:44;;;;;;;19.10;17.40;;;6.60;99.90;;;;;;5026523;28;20196;-89
2020/12/20 07:39:11;;;;;;;19.23;17.53;;;6.70;99.90;;;;;;5025545;28;20216;-89
2020/12/20 07:41:37;;;;;;;16.97;15.40;;;6.60;99.90;;;;;;5020219;28;20296;-88
2020/12/20 07:44:04;;;;;;;16.43;14.73;;;6.60;99.90;;;;;;5023359;28;20185;-89
2020/12/20 07:46:30;;;;;;;16.67;15.27;;;6.70;99.90;;;;;;5034160;28;20245;-89
2020/12/20 07:49:01;;;;;;;15.53;14.13;;;6.70;99.90;;;;;;5022583;28;20252;-89
2020/12/20 07:51:27;;;;;;;17.17;15.57;;;6.60;99.90;;;;;;5006692;28;20185;-89
2020/12/20 07:53:55;;;;;;;17.57;15.77;;;6.60;99.90;;;;;;5022660;28;20198;-90
2020/12/20 07:56:27;;;;;;;18.57;16.67;;;6.50;99.90;;;;;;5037546;28;20208;-89
2020/12/20 07:59:07;;;;;;;17.43;15.83;;;6.60;99.90;;;;;;5018680;28;20183;-89
2020/12/20 08:01:40;;;;;;;18.77;16.83;;;6.70;99.90;;;;;;5023202;28;20185;-90
2020/12/20 08:04:13;;;;;;;17.23;15.57;;;6.80;99.90;;;;;;5020800;28;20182;-89
2020/12/20 08:06:42;;;;;;;20.37;18.40;;;6.70;99.90;;;;;;5026654;28;20185;-89
2020/12/20 08:09:10;;;;;;;19.03;17.23;;;6.70;99.90;;;;;;5022668;28;20212;-89
2020/12/20 08:11:37;;;;;;;15.53;14.03;;;6.60;99.90;;;;;;5019367;28;20305;-89
2020/12/20 08:14:05;;;;;;;15.60;13.87;;;6.60;99.90;;;;;;5030307;28;20222;-89
2020/12/20 08:16:39;;;;;;;16.43;14.93;;;6.60;99.90;;;;;;5005746;28;20700;-88
2020/12/20 08:19:14;;;;;;;17.80;16.27;;;6.60;99.90;;;;;;5008037;28;20201;-89
2020/12/20 08:22:01;;;;;;;18.40;16.73;;;6.60;99.90;;;;;;5007368;28;20177;-88
2020/12/20 08:24:34;;;;;;;21.13;19.10;;;6.70;99.90;;;;;;5016552;28;20227;-89
2020/12/20 08:27:11;;;;;;;17.83;16.33;;;6.80;99.90;;;;;;5040730;28;20734;-89
2020/12/20 08:29:38;;;;;;;17.17;15.67;;;6.90;99.90;;;;;;5024379;28;20235;-88
2020/12/20 08:32:12;;;;;;;17.63;15.93;;;6.90;99.90;;;;;;5026213;28;20202;-89
2020/12/20 08:34:38;;;;;;;19.03;17.43;;;7.00;99.90;;;;;;5013029;28;20206;-89
2020/12/20 08:37:10;;;;;;;16.70;15.07;;;7.00;99.90;;;;;;5006315;28;20795;-89
2020/12/20 08:39:35;;;;;;;15.47;14.17;;;7.10;99.90;;;;;;5005805;28;20545;-89
2020/12/20 08:42:06;;;;;;;17.80;15.80;;;7.00;99.90;;;;;;5022020;28;20213;-90
2020/12/20 08:44:32;;;;;;;17.77;16.07;;;7.10;99.90;;;;;;5015488;28;20193;-90
2020/12/20 08:47:15;;;;;;;16.00;14.50;;;6.90;99.90;;;;;;5030689;28;20186;-89
2020/12/20 08:49:52;;;;;;;15.80;14.30;;;7.00;99.90;;;;;;5029396;28;20186;-90
2020/12/20 08:52:18;;;;;;;15.63;14.23;;;7.00;99.90;;;;;;5017577;28;20201;-90
2020/12/20 08:54:49;;;;;;;15.43;14.00;;;7.00;99.90;;;;;;5026939;28;20256;-90
2020/12/20 08:57:16;;;;;;;16.87;15.17;;;7.20;99.90;;;;;;5012074;28;20187;-90
2020/12/20 08:59:43;;;;;;;18.63;17.03;;;7.10;99.90;;;;;;5008170;28;20182;-90
2020/12/20 09:02:18;;;;;;;17.13;15.67;;;7.20;99.90;;;;;;5019494;28;20197;-90
2020/12/20 09:05:02;;;;;;;18.00;16.43;;;7.20;99.90;;;;;;5015854;28;20174;-90
2020/12/20 09:07:40;;;;;;;58.23;52.43;;;7.30;99.90;;;;;;5029447;28;20248;-90
2020/12/20 09:10:11;;;;;;;38.43;34.43;;;7.40;99.90;;;;;;5028194;28;20252;-89
2020/12/20 09:12:49;;;;;;;27.77;25.27;;;7.40;99.90;;;;;;5010703;28;20197;-90
2020/12/20 09:15:17;;;;;;;16.83;15.40;;;7.50;99.90;;;;;;5023555;28;20550;-89
2020/12/20 09:17:45;;;;;;;16.67;15.13;;;7.40;99.90;;;;;;5025135;28;20209;-90
2020/12/20 09:20:13;;;;;;;19.40;17.67;;;7.50;99.90;;;;;;5024554;28;20188;-89
2020/12/20 09:22:41;;;;;;;17.67;15.87;;;7.60;99.90;;;;;;5014417;28;20206;-89
2020/12/20 09:25:07;;;;;;;20.83;18.20;;;7.70;99.90;;;;;;5015335;28;20189;-89
2020/12/20 09:27:34;;;;;;;17.90;16.30;;;7.60;99.90;;;;;;5021066;28;20266;-88
2020/12/20 09:30:00;;;;;;;18.67;16.97;;;7.40;99.90;;;;;;5005883;28;20178;-89
2020/12/20 09:32:26;;;;;;;19.30;17.43;;;7.50;99.90;;;;;;5009916;28;20240;-89
2020/12/20 09:35:01;;;;;;;18.57;16.87;;;7.50;99.90;;;;;;5033594;28;20223;-89
2020/12/20 09:37:27;;;;;;;17.47;15.83;;;7.40;99.90;;;;;;5024184;28;20188;-89
2020/12/20 09:40:02;;;;;;;19.43;16.00;;;7.40;99.90;;;;;;5046224;28;20256;-89
2020/12/20 09:42:35;;;;;;;18.40;16.63;;;7.50;99.90;;;;;;5044699;28;20203;-89
2020/12/20 09:45:01;;;;;;;18.10;16.30;;;7.50;99.90;;;;;;5016485;28;20178;-89
2020/12/20 09:47:26;;;;;;;17.20;15.67;;;7.70;99.90;;;;;;5004343;28;20202;-88
2020/12/20 09:49:52;;;;;;;17.70;15.93;;;7.90;99.90;;;;;;5005131;28;20179;-89
2020/12/20 09:52:18;;;;;;;17.57;15.70;;;8.00;99.80;;;;;;5005541;28;20208;-88
2020/12/20 09:54:43;;;;;;;16.77;15.23;;;8.00;99.10;;;;;;5021323;28;20234;-88
2020/12/20 09:57:09;;;;;;;16.73;14.93;;;8.00;99.50;;;;;;5014680;28;20672;-88
2020/12/20 09:59:35;;;;;;;17.30;15.67;;;8.00;99.60;;;;;;5039853;28;20213;-88
2020/12/20 10:02:00;;;;;;;16.10;14.63;;;7.90;99.90;;;;;;5017880;28;20213;-88
2020/12/20 10:04:26;;;;;;;15.23;13.93;;;7.90;99.90;;;;;;5036505;28;20205;-88
2020/12/20 10:06:52;;;;;;;16.57;15.07;;;8.00;99.90;;;;;;5024727;28;20292;-88
2020/12/20 10:09:18;;;;;;;17.83;16.27;;;8.00;99.90;;;;;;5008107;28;20254;-87
2020/12/20 10:11:43;;;;;;;17.33;15.83;;;7.90;99.90;;;;;;5022118;28;20231;-88
2020/12/20 10:14:09;;;;;;;18.13;16.33;;;7.80;99.90;;;;;;5016255;28;20181;-88
2020/12/20 10:16:36;;;;;;;16.80;15.43;;;7.80;99.90;;;;;;5024589;28;20200;-88
2020/12/20 10:19:04;;;;;;;17.67;15.87;;;8.00;99.90;;;;;;5019792;28;20557;-88
2020/12/20 10:21:30;;;;;;;17.17;15.63;;;8.00;99.90;;;;;;5020998;28;20245;-88
2020/12/20 10:23:56;;;;;;;17.17;15.57;;;8.00;99.90;;;;;;5022742;28;20224;-89
2020/12/20 10:26:22;;;;;;;17.53;15.87;;;8.00;99.90;;;;;;5036606;28;20173;-89
2020/12/20 10:28:47;;;;;;;18.20;16.37;;;8.00;99.90;;;;;;5030858;28;20184;-88
2020/12/20 10:31:19;;;;;;;18.57;16.70;;;8.10;99.90;;;;;;5027988;28;20190;-88
2020/12/20 10:33:45;;;;;;;17.50;15.80;;;7.80;99.90;;;;;;5046848;28;20205;-88
2020/12/20 10:36:13;;;;;;;18.03;16.33;;;8.00;99.90;;;;;;5037311;28;20224;-89
2020/12/20 10:38:39;;;;;;;17.57;16.07;;;8.10;99.90;;;;;;5044696;28;20654;-88
2020/12/20 10:41:04;;;;;;;17.23;15.73;;;8.10;99.90;;;;;;5022985;28;20272;-88
2020/12/20 10:43:30;;;;;;;17.80;16.20;;;8.20;99.90;;;;;;5027906;28;20209;-89
2020/12/20 10:45:56;;;;;;;18.80;17.07;;;8.00;99.90;;;;;;5023433;28;20198;-88
2020/12/20 10:48:21;;;;;;;19.10;17.10;;;7.90;99.90;;;;;;5021333;28;20182;-89
2020/12/20 10:50:47;;;;;;;17.83;16.07;;;7.90;99.90;;;;;;5015712;28;20558;-88
2020/12/20 10:53:13;;;;;;;17.40;15.70;;;7.90;99.90;;;;;;5015764;28;20270;-89
2020/12/20 10:55:39;;;;;;;19.57;17.43;;;8.00;99.90;;;;;;5002291;28;20214;-88
2020/12/20 10:58:04;;;;;;;18.40;16.47;;;8.00;99.90;;;;;;5016151;28;20258;-88
2020/12/20 11:00:30;;;;;;;16.27;14.77;;;8.00;99.90;;;;;;5035471;28;20209;-89
2020/12/20 11:02:56;;;;;;;16.50;14.93;;;8.20;99.90;;;;;;5021643;28;20205;-88
2020/12/20 11:05:22;;;;;;;17.63;15.93;;;8.50;99.90;;;;;;5025214;28;20193;-88
2020/12/20 11:07:48;;;;;;;15.77;14.20;;;8.50;99.90;;;;;;5023356;28;20320;-89
2020/12/20 11:10:13;;;;;;;15.50;14.07;;;8.80;99.90;;;;;;5024845;28;20637;-88
2020/12/20 11:12:39;;;;;;;16.63;15.10;;;9.00;99.90;;;;;;5039545;28;20208;-88
2020/12/20 11:15:05;;;;;;;18.30;16.20;;;9.10;99.90;;;;;;5021531;28;20212;-88
2020/12/20 11:17:33;;;;;;;16.00;14.47;;;8.90;99.90;;;;;;5021909;28;20540;-88
2020/12/20 11:19:59;;;;;;;15.73;14.33;;;8.80;99.90;;;;;;5038320;28;20177;-88
2020/12/20 11:22:25;;;;;;;16.77;15.17;;;8.90;99.90;;;;;;5037895;28;20240;-89
2020/12/20 11:24:50;;;;;;;17.73;16.13;;;8.60;99.90;;;;;;5038617;28;20209;-88
2020/12/20 11:27:16;;;;;;;16.53;14.40;;;8.60;99.90;;;;;;5025581;28;20686;-88
2020/12/20 11:29:42;;;;;;;17.60;15.80;;;8.60;99.90;;;;;;5027113;28;20185;-88
2020/12/20 11:32:07;;;;;;;16.97;15.33;;;8.60;99.90;;;;;;5044497;28;20205;-88
2020/12/20 11:34:33;;;;;;;17.23;15.63;;;8.60;99.90;;;;;;5024882;28;20220;-89
2020/12/20 11:36:59;;;;;;;17.37;15.80;;;8.60;99.90;;;;;;5027241;28;20178;-88
2020/12/20 11:39:24;;;;;;;17.47;15.77;;;8.40;99.90;;;;;;5031925;28;20183;-89
2020/12/20 11:41:50;;;;;;;18.57;16.63;;;8.50;99.90;;;;;;5009004;28;20205;-88
2020/12/20 11:44:16;;;;;;;18.20;16.50;;;8.40;99.90;;;;;;5008688;28;20221;-89
2020/12/20 11:46:42;;;;;;;16.77;15.07;;;8.40;99.90;;;;;;5024275;28;20197;-89
2020/12/20 11:49:07;;;;;;;16.63;15.07;;;8.70;99.90;;;;;;5024056;28;20237;-89
2020/12/20 11:51:33;;;;;;;15.87;14.13;;;8.80;99.90;;;;;;5009384;28;20230;-89
2020/12/20 11:53:59;;;;;;;15.37;13.87;;;8.90;99.90;;;;;;5009084;28;20213;-88
2020/12/20 11:56:25;;;;;;;15.30;13.90;;;8.90;99.90;;;;;;5012580;28;20177;-89
2020/12/20 11:58:51;;;;;;;15.43;13.93;;;9.00;99.90;;;;;;5026118;28;20641;-89
2020/12/20 12:01:22;;;;;;;14.47;13.17;;;9.00;99.90;;;;;;5024238;28;20278;-89
2020/12/20 12:03:48;;;;;;;15.77;13.87;;;9.10;99.90;;;;;;5008648;28;20186;-89
2020/12/20 12:06:14;;;;;;;14.90;13.23;;;9.20;99.90;;;;;;5008438;28;20210;-89
2020/12/20 12:08:41;;;;;;;14.07;12.83;;;9.00;99.90;;;;;;5008089;28;20674;-88
2020/12/20 12:11:06;;;;;;;14.63;13.23;;;9.00;99.90;;;;;;5008642;28;20194;-89
2020/12/20 12:13:32;;;;;;;13.73;12.33;;;9.00;99.90;;;;;;5008350;28;20209;-89
2020/12/20 12:15:58;;;;;;;14.47;13.17;;;9.00;99.90;;;;;;5019630;28;20210;-89
2020/12/20 12:18:24;;;;;;;13.57;12.30;;;9.10;99.90;;;;;;5025237;28;20202;-89
2020/12/20 12:20:49;;;;;;;13.93;12.53;;;9.20;99.90;;;;;;5023599;28;20216;-89
2020/12/20 12:23:15;;;;;;;13.53;12.23;;;9.20;99.30;;;;;;5022922;28;20212;-89
2020/12/20 12:25:41;;;;;;;14.40;12.90;;;9.20;99.90;;;;;;5041158;28;20190;-89
2020/12/20 12:28:06;;;;;;;15.17;13.53;;;9.20;99.90;;;;;;5024458;28;20364;-89
2020/12/20 12:30:32;;;;;;;13.83;12.60;;;9.10;99.90;;;;;;5038670;28;20643;-89
2020/12/20 12:32:58;;;;;;;14.63;13.27;;;8.90;99.90;;;;;;5029901;28;20285;-89
2020/12/20 12:35:24;;;;;;;14.07;12.77;;;9.10;99.90;;;;;;5019999;28;20210;-89
2020/12/20 12:37:50;;;;;;;13.80;12.40;;;8.90;99.90;;;;;;5025319;28;20190;-89
2020/12/20 12:40:17;;;;;;;14.30;12.73;;;8.90;99.90;;;;;;5025474;28;20220;-89